Time;durP1;ratioP1;P1;durP2;ratioP2;P2;SDS_P1;SDS_P2;PMS_P1;PMS_P2;Temp;Humidity;BMP_temperature;BMP_pressure;BME280_temperature;BME280_humidity;BME280_pressure;Samples;Min_cycle;Max_cycle;Signal;HPM_P1;HPM_P2
2022/03/02 00:01:38;;;;;;;8.38;6.65;;;2.20;78.20;;;;;;5091947;28;20207;-78
2022/03/02 00:04:04;;;;;;;8.10;6.00;;;2.20;78.20;;;;;;5091541;28;20227;-79
2022/03/02 00:06:31;;;;;;;7.25;6.13;;;2.20;78.20;;;;;;5093423;28;20197;-79
2022/03/02 00:08:56;;;;;;;7.07;5.70;;;2.20;76.60;;;;;;5094126;28;20179;-79
2022/03/02 00:11:22;;;;;;;10.80;6.50;;;2.20;77.90;;;;;;5093580;28;20202;-77
2022/03/02 00:13:48;;;;;;;6.38;5.10;;;2.10;78.80;;;;;;5092020;28;20648;-78
2022/03/02 00:16:14;;;;;;;10.67;5.77;;;2.10;77.50;;;;;;5092291;28;20235;-76
2022/03/02 00:18:40;;;;;;;6.90;4.90;;;2.30;75.00;;;;;;5092087;28;20414;-78
2022/03/02 00:21:06;;;;;;;9.80;5.85;;;2.40;74.60;;;;;;5091999;28;20215;-77
2022/03/02 00:23:32;;;;;;;11.90;5.50;;;2.50;74.30;;;;;;5091748;28;20208;-78
2022/03/02 00:25:58;;;;;;;8.20;6.10;;;2.40;75.20;;;;;;5092722;28;20435;-78
2022/03/02 00:28:24;;;;;;;9.90;5.90;;;2.40;75.40;;;;;;5092848;28;20422;-77
2022/03/02 00:30:50;;;;;;;7.93;4.90;;;2.30;75.00;;;;;;5090561;28;20664;-78
2022/03/02 00:33:16;;;;;;;8.40;5.45;;;2.30;76.20;;;;;;5091690;28;20423;-77
2022/03/02 00:35:42;;;;;;;6.05;4.50;;;2.30;74.70;;;;;;5092164;28;20182;-79
2022/03/02 00:38:10;;;;;;;8.73;5.70;;;2.30;74.70;;;;;;5092115;28;20195;-78
2022/03/02 00:40:37;;;;;;;7.57;5.50;;;2.40;74.10;;;;;;5092429;28;20351;-77
2022/03/02 00:43:04;;;;;;;11.88;6.63;;;2.30;74.10;;;;;;5090930;28;20300;-78
2022/03/02 00:45:31;;;;;;;8.65;5.45;;;2.30;74.20;;;;;;5091560;28;20188;-79
2022/03/02 00:47:58;;;;;;;7.75;5.88;;;2.30;74.30;;;;;;5090489;28;20686;-78
2022/03/02 00:50:24;;;;;;;5.78;5.13;;;2.10;74.50;;;;;;5092172;28;20195;-78
2022/03/02 00:52:50;;;;;;;16.80;10.10;;;2.10;75.10;;;;;;5092155;28;20679;-78
2022/03/02 00:55:15;;;;;;;10.23;7.50;;;2.00;78.50;;;;;;5090617;28;20194;-78
2022/03/02 00:57:41;;;;;;;10.17;5.53;;;1.80;80.40;;;;;;5073442;28;20209;-77
2022/03/02 01:00:08;;;;;;;7.67;4.97;;;1.90;76.50;;;;;;5090105;28;20213;-78
2022/03/02 01:02:34;;;;;;;7.03;5.28;;;2.00;75.50;;;;;;5073390;28;20293;-79
2022/03/02 01:05:00;;;;;;;6.40;4.90;;;2.10;74.60;;;;;;5090425;28;20713;-78
2022/03/02 01:07:25;;;;;;;6.18;5.15;;;2.20;73.90;;;;;;5091329;28;20208;-77
2022/03/02 01:09:51;;;;;;;9.90;7.03;;;2.10;74.00;;;;;;5091403;28;20258;-78
2022/03/02 01:12:17;;;;;;;16.70;10.00;;;2.10;77.30;;;;;;5089459;28;20224;-78
2022/03/02 01:14:43;;;;;;;21.13;13.43;;;1.90;80.00;;;;;;5091279;28;20276;-78
2022/03/02 01:17:08;;;;;;;18.60;12.30;;;1.50;83.20;;;;;;5089525;28;20189;-78
2022/03/02 01:19:35;;;;;;;19.90;11.80;;;1.10;86.60;;;;;;5089722;28;20200;-77
2022/03/02 01:22:01;;;;;;;20.88;13.00;;;0.90;88.80;;;;;;5089092;28;20616;-77
2022/03/02 01:24:26;;;;;;;20.27;12.67;;;0.80;90.10;;;;;;5090338;28;20181;-77
2022/03/02 01:26:52;;;;;;;17.57;11.83;;;0.60;90.40;;;;;;5090374;28;20185;-78
2022/03/02 01:29:18;;;;;;;20.37;12.50;;;0.40;91.00;;;;;;5089096;28;20182;-77
2022/03/02 01:31:43;;;;;;;18.80;11.90;;;0.20;92.20;;;;;;5089382;28;20630;-77
2022/03/02 01:34:09;;;;;;;24.83;13.67;;;0.10;93.10;;;;;;5090975;28;20656;-78
2022/03/02 01:36:35;;;;;;;24.80;13.53;;;0.00;93.40;;;;;;5089668;28;20270;-78
2022/03/02 01:39:00;;;;;;;23.57;12.47;;;0.00;93.60;;;;;;5091606;28;20254;-78
2022/03/02 01:41:26;;;;;;;26.70;14.00;;;-0.10;94.20;;;;;;5089876;28;20201;-78
2022/03/02 01:43:54;;;;;;;24.10;13.87;;;-0.10;94.30;;;;;;5091223;28;20204;-77
2022/03/02 01:46:21;;;;;;;22.55;13.25;;;-0.10;94.40;;;;;;5091086;28;20408;-77
2022/03/02 01:48:47;;;;;;;21.42;13.15;;;-0.20;94.30;;;;;;5073098;28;20189;-77
2022/03/02 01:51:13;;;;;;;24.83;13.27;;;-0.20;94.50;;;;;;5090576;28;20206;-77
2022/03/02 01:53:40;;;;;;;22.42;12.80;;;-0.30;94.70;;;;;;5090498;28;20311;-77
2022/03/02 01:56:06;;;;;;;28.20;13.85;;;-0.30;94.70;;;;;;5072347;28;20189;-78
2022/03/02 01:58:32;;;;;;;17.48;12.73;;;-0.40;94.70;;;;;;5088540;28;20621;-77
2022/03/02 02:00:59;;;;;;;22.03;13.73;;;-0.50;94.90;;;;;;5090676;28;20312;-77
2022/03/02 02:03:25;;;;;;;25.67;13.43;;;-0.30;95.20;;;;;;5090121;28;20586;-77
2022/03/02 02:05:51;;;;;;;22.75;12.32;;;-0.50;95.10;;;;;;5090378;28;20315;-77
2022/03/02 02:08:17;;;;;;;24.70;13.48;;;-0.50;95.50;;;;;;5088681;28;20198;-77
2022/03/02 02:10:43;;;;;;;19.27;11.77;;;-0.50;95.60;;;;;;5090046;28;20192;-78
2022/03/02 02:13:09;;;;;;;24.33;12.70;;;-0.60;95.10;;;;;;5088909;28;20414;-77
2022/03/02 02:15:34;;;;;;;21.73;11.85;;;-0.70;96.00;;;;;;5089433;28;20182;-78
2022/03/02 02:18:00;;;;;;;20.50;11.40;;;-0.70;95.70;;;;;;5093135;28;20193;-78
2022/03/02 02:20:26;;;;;;;19.53;11.47;;;-0.70;95.90;;;;;;5090764;28;20265;-78
2022/03/02 02:22:52;;;;;;;18.97;11.90;;;-0.90;96.10;;;;;;5074178;28;20301;-78
2022/03/02 02:25:18;;;;;;;22.37;13.40;;;-0.90;96.60;;;;;;5092928;28;20240;-77
2022/03/02 02:27:45;;;;;;;19.53;12.17;;;-0.90;97.20;;;;;;5090423;28;20412;-77
2022/03/02 02:30:13;;;;;;;18.33;12.20;;;-0.80;97.20;;;;;;5088442;28;20506;-77
2022/03/02 02:32:40;;;;;;;25.27;13.15;;;-1.00;97.30;;;;;;5088404;28;20190;-76
2022/03/02 02:35:08;;;;;;;19.92;11.68;;;-1.00;97.30;;;;;;5089604;28;20641;-76
2022/03/02 02:37:35;;;;;;;19.10;11.30;;;-1.00;97.40;;;;;;5088611;28;20216;-76
2022/03/02 02:40:04;;;;;;;19.20;10.60;;;-0.90;97.00;;;;;;5089531;28;20555;-76
2022/03/02 02:42:30;;;;;;;19.33;11.55;;;-0.90;96.90;;;;;;5088349;28;20291;-77
2022/03/02 02:44:56;;;;;;;18.67;12.23;;;-0.80;97.10;;;;;;5088661;28;20951;-77
2022/03/02 02:47:22;;;;;;;17.90;11.53;;;-0.80;97.00;;;;;;5090071;28;20713;-77
2022/03/02 02:49:48;;;;;;;16.17;10.65;;;-0.80;97.10;;;;;;5071731;28;20425;-78
2022/03/02 02:52:15;;;;;;;17.73;11.30;;;-0.80;97.30;;;;;;5089970;28;20202;-78
2022/03/02 02:54:42;;;;;;;18.73;11.18;;;-1.00;97.70;;;;;;5089902;28;20445;-78
2022/03/02 02:57:08;;;;;;;21.13;12.70;;;-1.00;97.70;;;;;;5088821;28;20181;-78
2022/03/02 02:59:34;;;;;;;21.17;11.43;;;-1.00;98.10;;;;;;5089968;28;20181;-77
2022/03/02 03:02:00;;;;;;;19.00;11.80;;;-1.10;98.10;;;;;;5088356;28;20891;-77
2022/03/02 03:04:26;;;;;;;18.30;11.33;;;-1.10;98.30;;;;;;5090014;28;20178;-77
2022/03/02 03:06:51;;;;;;;22.50;10.57;;;-1.20;98.60;;;;;;5088329;28;20175;-77
2022/03/02 03:09:17;;;;;;;18.37;11.53;;;-1.00;98.90;;;;;;5089010;28;20183;-77
2022/03/02 03:11:43;;;;;;;15.07;11.07;;;-1.20;98.60;;;;;;5071472;28;20199;-78
2022/03/02 03:14:11;;;;;;;21.00;10.93;;;-1.20;98.80;;;;;;5089463;28;20595;-77
2022/03/02 03:16:37;;;;;;;16.80;10.05;;;-1.10;98.50;;;;;;5089302;28;20186;-78
2022/03/02 03:19:03;;;;;;;14.38;9.98;;;-1.20;98.30;;;;;;5089411;28;20185;-77
2022/03/02 03:21:29;;;;;;;18.25;9.60;;;-1.20;98.20;;;;;;5089094;28;20662;-78
2022/03/02 03:23:55;;;;;;;13.43;8.70;;;-1.20;98.30;;;;;;5089438;28;20322;-78
2022/03/02 03:26:21;;;;;;;17.40;10.30;;;-1.10;98.60;;;;;;5087814;28;20254;-78
2022/03/02 03:28:47;;;;;;;15.48;9.23;;;-1.10;98.20;;;;;;5087805;28;20563;-78
2022/03/02 03:31:12;;;;;;;14.13;8.87;;;-1.10;97.60;;;;;;5088878;28;20226;-78
2022/03/02 03:33:38;;;;;;;23.30;11.30;;;-1.00;97.80;;;;;;5089182;28;21197;-77
2022/03/02 03:36:04;;;;;;;20.90;10.53;;;-1.00;97.30;;;;;;5088993;28;20595;-78
2022/03/02 03:38:30;;;;;;;23.10;10.00;;;-1.00;97.50;;;;;;5089349;28;20308;-77
2022/03/02 03:40:55;;;;;;;13.20;9.60;;;-1.00;97.40;;;;;;5088917;28;20287;-78
2022/03/02 03:43:21;;;;;;;17.70;10.60;;;-1.10;97.40;;;;;;5071210;28;20286;-78
2022/03/02 03:45:49;;;;;;;16.23;10.13;;;-1.00;97.90;;;;;;5089378;28;20557;-78
2022/03/02 03:48:15;;;;;;;15.60;10.95;;;-0.90;98.00;;;;;;5089380;28;20183;-77
2022/03/02 03:50:41;;;;;;;18.60;11.57;;;-0.90;97.80;;;;;;5089144;28;20198;-76
2022/03/02 03:53:07;;;;;;;17.67;10.27;;;-1.10;98.10;;;;;;5087967;28;20189;-77
2022/03/02 03:55:33;;;;;;;16.50;10.27;;;-1.20;98.30;;;;;;5071181;28;20227;-77
2022/03/02 03:57:58;;;;;;;16.00;9.07;;;-1.20;98.50;;;;;;5089354;28;20421;-78
2022/03/02 04:00:24;;;;;;;14.33;9.97;;;-1.20;98.80;;;;;;5089090;28;20483;-78
2022/03/02 04:02:49;;;;;;;15.90;9.90;;;-1.30;98.60;;;;;;5089643;28;20206;-76
2022/03/02 04:05:16;;;;;;;18.77;10.88;;;-1.40;98.70;;;;;;5088602;28;20207;-78
2022/03/02 04:07:42;;;;;;;13.80;9.30;;;-1.50;99.20;;;;;;5088449;28;20224;-78
2022/03/02 04:10:09;;;;;;;12.53;8.80;;;-1.40;99.50;;;;;;5089519;28;20174;-77
2022/03/02 04:12:36;;;;;;;16.90;9.38;;;-1.50;99.40;;;;;;5088232;28;20444;-78
2022/03/02 04:15:03;;;;;;;17.17;9.60;;;-1.50;99.50;;;;;;5089425;28;20179;-78
2022/03/02 04:17:30;;;;;;;20.35;11.25;;;-1.60;99.40;;;;;;5090486;28;20175;-78
2022/03/02 04:19:56;;;;;;;17.60;11.15;;;-1.50;99.60;;;;;;5090224;28;20186;-78
2022/03/02 04:22:21;;;;;;;15.30;10.13;;;-1.60;99.70;;;;;;5093725;28;20213;-78
2022/03/02 04:24:47;;;;;;;16.30;10.73;;;-1.70;99.90;;;;;;5095090;28;20830;-78
2022/03/02 04:27:13;;;;;;;15.13;9.90;;;-1.70;99.90;;;;;;5094973;28;20592;-77
2022/03/02 04:29:39;;;;;;;15.10;10.25;;;-1.80;99.90;;;;;;5094374;28;20207;-78
2022/03/02 04:32:06;;;;;;;15.27;9.47;;;-1.80;99.90;;;;;;5094628;28;20230;-77
2022/03/02 04:34:31;;;;;;;15.15;10.75;;;-1.80;99.90;;;;;;5093626;28;20417;-78
2022/03/02 04:36:57;;;;;;;15.43;9.90;;;-1.90;99.90;;;;;;5096536;28;20183;-77
2022/03/02 04:39:23;;;;;;;12.20;8.33;;;-1.90;99.90;;;;;;5096782;28;20181;-78
2022/03/02 04:41:49;;;;;;;12.85;9.07;;;-2.00;99.90;;;;;;5076676;28;20455;-77
2022/03/02 04:44:15;;;;;;;11.80;8.65;;;-2.00;99.90;;;;;;5094601;28;20213;-78
2022/03/02 04:46:40;;;;;;;14.30;8.87;;;-2.00;99.90;;;;;;5093843;28;20179;-79
2022/03/02 04:49:13;;;;;;;13.97;9.03;;;-1.80;99.90;;;;;;5076859;28;20239;-79
2022/03/02 04:51:40;;;;;;;13.10;8.50;;;-1.90;99.90;;;;;;5092980;28;20202;-77
2022/03/02 04:54:07;;;;;;;12.50;8.98;;;-1.90;99.90;;;;;;5091991;28;20195;-78
2022/03/02 04:56:34;;;;;;;14.88;10.27;;;-1.80;99.90;;;;;;5090543;28;20182;-78
2022/03/02 04:59:03;;;;;;;19.52;13.25;;;-2.00;99.90;;;;;;5091521;28;20534;-78
2022/03/02 05:01:29;;;;;;;12.85;9.07;;;-2.00;99.90;;;;;;5091174;28;20305;-77
2022/03/02 05:03:54;;;;;;;10.50;8.00;;;-2.10;99.90;;;;;;5092227;28;20203;-78
2022/03/02 05:06:20;;;;;;;9.80;7.20;;;-2.00;99.90;;;;;;5091903;28;20232;-78
2022/03/02 05:08:46;;;;;;;10.10;7.43;;;-2.10;99.90;;;;;;5092522;28;20196;-77
2022/03/02 05:11:11;;;;;;;21.60;9.50;;;-2.00;99.90;;;;;;5092091;28;20617;-78
2022/03/02 05:13:37;;;;;;;12.20;7.63;;;-1.80;99.90;;;;;;5093131;28;20197;-77
2022/03/02 05:16:03;;;;;;;10.30;7.50;;;-1.90;99.90;;;;;;5091920;28;20186;-76
2022/03/02 05:18:29;;;;;;;13.93;8.00;;;-1.90;99.90;;;;;;5091655;28;20618;-76
2022/03/02 05:20:54;;;;;;;11.40;7.37;;;-1.90;99.90;;;;;;5091492;28;20471;-77
2022/03/02 05:23:20;;;;;;;16.13;9.23;;;-2.00;99.90;;;;;;5090214;28;20225;-77
2022/03/02 05:25:45;;;;;;;12.50;8.27;;;-2.00;99.90;;;;;;5091487;28;20175;-77
2022/03/02 05:28:12;;;;;;;13.73;8.60;;;-2.00;99.90;;;;;;5089767;28;20217;-77
2022/03/02 05:30:37;;;;;;;14.33;9.00;;;-2.00;99.90;;;;;;5089670;28;20226;-77
2022/03/02 05:33:03;;;;;;;14.33;8.10;;;-2.00;99.90;;;;;;5090117;28;20186;-77
2022/03/02 05:35:29;;;;;;;13.10;7.70;;;-2.00;99.90;;;;;;5089622;28;20201;-77
2022/03/02 05:37:54;;;;;;;11.53;7.47;;;-2.00;99.90;;;;;;5090925;28;20191;-77
2022/03/02 05:40:21;;;;;;;13.87;8.10;;;-2.00;99.90;;;;;;5089527;28;20231;-77
2022/03/02 05:42:46;;;;;;;12.23;8.48;;;-2.00;99.90;;;;;;5090626;28;20199;-77
2022/03/02 05:45:12;;;;;;;11.30;7.90;;;-2.00;99.90;;;;;;5089591;28;20194;-76
2022/03/02 05:47:38;;;;;;;12.40;6.60;;;-2.00;99.90;;;;;;5090222;28;20178;-77
2022/03/02 05:50:06;;;;;;;10.60;7.35;;;-2.00;99.90;;;;;;5088090;28;20652;-77
2022/03/02 05:52:32;;;;;;;9.18;6.85;;;-2.10;99.90;;;;;;5088076;28;20194;-77
2022/03/02 05:54:57;;;;;;;11.93;7.20;;;-2.10;99.90;;;;;;5088209;28;20214;-77
2022/03/02 05:57:23;;;;;;;27.87;8.47;;;-2.00;99.90;;;;;;5089635;28;20214;-77
2022/03/02 05:59:48;;;;;;;9.77;7.53;;;-2.00;99.90;;;;;;5089578;28;20181;-76
2022/03/02 06:02:15;;;;;;;13.77;8.03;;;-1.90;99.90;;;;;;5087436;28;20273;-77
2022/03/02 06:04:40;;;;;;;13.80;8.07;;;-1.90;99.90;;;;;;5087648;28;20175;-77
2022/03/02 06:07:06;;;;;;;11.13;7.77;;;-1.90;99.90;;;;;;5088860;28;20183;-77
2022/03/02 06:09:32;;;;;;;40.40;15.90;;;-1.90;99.90;;;;;;5089054;28;20927;-77
2022/03/02 06:11:58;;;;;;;14.90;10.03;;;-1.90;99.90;;;;;;5088324;28;20211;-75
2022/03/02 06:14:24;;;;;;;41.47;17.40;;;-1.90;99.90;;;;;;5090267;28;20412;-78
2022/03/02 06:16:50;;;;;;;55.30;23.97;;;-1.90;99.90;;;;;;5091828;28;20925;-77
2022/03/02 06:19:16;;;;;;;43.40;19.73;;;-1.80;99.90;;;;;;5092044;28;20663;-77
2022/03/02 06:21:43;;;;;;;36.40;18.20;;;-1.70;99.90;;;;;;5091719;28;20312;-78
2022/03/02 06:24:10;;;;;;;72.40;31.08;;;-1.60;99.90;;;;;;5073462;28;20580;-77
2022/03/02 06:26:36;;;;;;;58.63;24.83;;;-1.60;99.90;;;;;;5088172;28;20270;-77
2022/03/02 06:29:02;;;;;;;57.00;27.80;;;-1.50;99.90;;;;;;5088310;28;20179;-77
2022/03/02 06:31:27;;;;;;;43.30;20.40;;;-1.40;99.90;;;;;;5088217;28;20207;-76
2022/03/02 06:33:53;;;;;;;31.17;17.40;;;-1.30;99.90;;;;;;5088574;28;20483;-76
2022/03/02 06:36:20;;;;;;;20.97;12.00;;;-1.20;99.90;;;;;;5088226;28;20217;-77
2022/03/02 06:38:46;;;;;;;35.58;13.23;;;-1.10;99.60;;;;;;5087956;28;20270;-77
2022/03/02 06:41:28;;;;;;;20.00;11.00;;;-1.10;99.90;;;;;;5086304;28;20241;-77
2022/03/02 06:44:09;;;;;;;17.08;10.15;;;-1.00;99.60;;;;;;5088097;28;20212;-76
2022/03/02 06:47:02;;;;;;;18.42;9.80;;;-0.80;99.90;;;;;;5089323;28;20170;-76
2022/03/02 06:49:56;;;;;;;28.25;15.57;;;-0.50;99.90;;;;;;5087937;28;20641;-76
2022/03/02 06:52:27;;;;;;;29.45;17.02;;;-0.30;99.90;;;;;;5087982;28;20188;-76
2022/03/02 06:54:56;;;;;;;30.05;17.33;;;-0.10;99.90;;;;;;5086652;28;20568;-76
2022/03/02 06:57:27;;;;;;;23.75;14.40;;;0.10;99.00;;;;;;5087990;28;20182;-76
2022/03/02 06:59:58;;;;;;;16.88;11.20;;;0.30;98.20;;;;;;5086273;28;20185;-76
2022/03/02 07:02:34;;;;;;;17.75;10.32;;;0.40;97.60;;;;;;5086136;28;20743;-76
2022/03/02 07:05:02;;;;;;;31.73;11.75;;;0.50;97.30;;;;;;5086416;28;20198;-76
2022/03/02 07:07:27;;;;;;;33.00;10.40;;;0.70;96.30;;;;;;5087663;28;20185;-76
2022/03/02 07:09:54;;;;;;;32.63;10.53;;;0.80;96.30;;;;;;5087624;28;20242;-76
2022/03/02 07:12:21;;;;;;;18.50;9.65;;;0.90;96.20;;;;;;5087696;28;20210;-76
2022/03/02 07:14:49;;;;;;;18.08;9.52;;;1.00;96.00;;;;;;5087675;28;20639;-76
2022/03/02 07:17:15;;;;;;;15.88;9.30;;;1.00;95.50;;;;;;5087688;28;20216;-76
2022/03/02 07:19:41;;;;;;;47.33;20.17;;;1.00;96.00;;;;;;5086300;28;20244;-76
2022/03/02 07:22:11;;;;;;;43.73;19.30;;;1.00;96.90;;;;;;5086182;28;20209;-76
2022/03/02 07:24:41;;;;;;;37.30;18.67;;;1.10;98.00;;;;;;5069651;28;20187;-76
2022/03/02 07:27:07;;;;;;;29.98;15.63;;;0.90;98.50;;;;;;5087715;28;20585;-76
2022/03/02 07:29:35;;;;;;;27.63;14.30;;;1.00;98.40;;;;;;5086184;28;20251;-76
2022/03/02 07:32:04;;;;;;;20.30;14.38;;;0.90;97.70;;;;;;5087314;28;20199;-77
2022/03/02 07:34:32;;;;;;;29.20;15.13;;;0.90;97.90;;;;;;5087683;28;20191;-75
2022/03/02 07:36:59;;;;;;;40.47;17.42;;;0.90;98.20;;;;;;5087242;28;20859;-76
2022/03/02 07:39:27;;;;;;;27.30;16.40;;;0.90;98.50;;;;;;5085946;28;20195;-77
2022/03/02 07:41:53;;;;;;;19.58;13.48;;;0.90;98.60;;;;;;5087535;28;20252;-76
2022/03/02 07:44:19;;;;;;;16.83;12.00;;;1.00;98.40;;;;;;5087795;28;20215;-76
2022/03/02 07:46:45;;;;;;;46.63;14.30;;;1.10;97.70;;;;;;5088326;28;20651;-76
2022/03/02 07:49:10;;;;;;;24.95;13.13;;;1.30;97.30;;;;;;5090595;28;20520;-76
2022/03/02 07:51:39;;;;;;;22.13;13.03;;;1.30;96.50;;;;;;5087940;28;20596;-77
2022/03/02 07:54:06;;;;;;;19.83;11.45;;;1.30;96.90;;;;;;5087900;28;20206;-76
2022/03/02 07:56:33;;;;;;;15.70;10.45;;;1.50;94.50;;;;;;5090902;28;20181;-76
2022/03/02 07:59:04;;;;;;;14.88;9.05;;;1.70;93.90;;;;;;5091934;28;20245;-76
2022/03/02 08:01:36;;;;;;;20.58;10.82;;;2.20;93.50;;;;;;5091805;28;20257;-76
2022/03/02 08:04:07;;;;;;;28.73;11.52;;;3.00;92.80;;;;;;5090323;28;20213;-76
2022/03/02 08:06:38;;;;;;;21.90;12.50;;;3.40;91.80;;;;;;5091733;28;20233;-76
2022/03/02 08:09:05;;;;;;;18.17;12.15;;;3.50;90.80;;;;;;5090375;28;20416;-76
2022/03/02 08:11:32;;;;;;;16.02;11.40;;;3.40;90.90;;;;;;5091349;28;20213;-76
2022/03/02 08:14:00;;;;;;;20.23;11.60;;;3.30;90.60;;;;;;5089650;28;20216;-76
2022/03/02 08:16:29;;;;;;;20.90;13.80;;;3.30;91.20;;;;;;5089584;28;20432;-76
2022/03/02 08:18:56;;;;;;;27.47;14.80;;;3.10;92.40;;;;;;5091150;28;20190;-76
2022/03/02 08:21:25;;;;;;;22.55;14.27;;;3.00;93.80;;;;;;5090885;28;20432;-76
2022/03/02 08:23:53;;;;;;;23.50;14.85;;;2.80;94.10;;;;;;5089584;28;20240;-76
2022/03/02 08:26:20;;;;;;;23.73;13.20;;;2.70;94.10;;;;;;5089244;28;20186;-76
2022/03/02 08:28:46;;;;;;;22.50;12.77;;;2.70;94.20;;;;;;5090990;28;20183;-76
2022/03/02 08:31:13;;;;;;;20.35;12.25;;;2.60;94.00;;;;;;5089592;28;20882;-77
2022/03/02 08:33:41;;;;;;;21.83;12.98;;;2.50;93.00;;;;;;5090860;28;20199;-76
2022/03/02 08:36:09;;;;;;;18.92;11.50;;;2.50;92.90;;;;;;5090902;28;20185;-76
2022/03/02 08:38:40;;;;;;;19.95;13.10;;;2.60;93.00;;;;;;5090594;28;20185;-76
2022/03/02 08:41:07;;;;;;;14.85;10.00;;;2.60;92.40;;;;;;5088527;28;20234;-76
2022/03/02 08:43:37;;;;;;;17.90;11.27;;;2.70;92.60;;;;;;5089652;28;20219;-76
2022/03/02 08:46:04;;;;;;;18.83;10.82;;;2.70;92.20;;;;;;5089836;28;20553;-76
2022/03/02 08:48:30;;;;;;;21.58;11.75;;;2.80;92.10;;;;;;5089683;28;20174;-76
2022/03/02 08:50:59;;;;;;;17.03;11.57;;;2.90;92.40;;;;;;5089474;28;20701;-76
2022/03/02 08:53:26;;;;;;;23.07;11.73;;;3.30;93.10;;;;;;5070931;28;21024;-75
2022/03/02 08:55:53;;;;;;;18.63;12.50;;;3.40;92.40;;;;;;5089670;28;20512;-76
2022/03/02 08:58:19;;;;;;;19.55;12.00;;;4.10;92.40;;;;;;5088104;28;20193;-76
2022/03/02 09:00:44;;;;;;;22.20;11.67;;;5.00;90.50;;;;;;5089525;28;20286;-76
2022/03/02 09:03:15;;;;;;;18.10;12.33;;;5.40;87.80;;;;;;5089322;28;20473;-76
2022/03/02 09:05:42;;;;;;;21.13;12.03;;;6.40;85.20;;;;;;5089434;28;20420;-75
2022/03/02 09:08:08;;;;;;;16.37;11.80;;;6.80;80.80;;;;;;5087905;28;20412;-76
2022/03/02 09:10:35;;;;;;;20.87;13.10;;;6.60;80.50;;;;;;5088016;28;20432;-75
2022/03/02 09:13:02;;;;;;;22.37;13.77;;;6.80;81.20;;;;;;5089367;28;20512;-75
2022/03/02 09:15:28;;;;;;;19.23;11.30;;;6.80;79.10;;;;;;5089425;28;20796;-75
2022/03/02 09:17:55;;;;;;;17.40;12.10;;;7.00;77.20;;;;;;5089114;28;20497;-76
2022/03/02 09:20:23;;;;;;;19.93;13.60;;;7.30;77.20;;;;;;5087620;28;20845;-76
2022/03/02 09:22:51;;;;;;;22.03;12.53;;;8.00;75.40;;;;;;5088792;28;20548;-76
2022/03/02 09:25:17;;;;;;;20.30;13.60;;;8.20;73.90;;;;;;5089174;28;20584;-76
2022/03/02 09:27:46;;;;;;;20.30;13.53;;;8.60;70.60;;;;;;5089075;28;21047;-76
2022/03/02 09:30:12;;;;;;;20.00;13.60;;;8.90;68.70;;;;;;5089080;28;20504;-77
2022/03/02 09:32:42;;;;;;;16.60;12.60;;;9.40;67.30;;;;;;5089489;28;20420;-77
2022/03/02 09:35:13;;;;;;;32.60;12.60;;;9.80;65.90;;;;;;5087674;28;20444;-76
2022/03/02 09:37:42;;;;;;;18.20;13.07;;;9.90;63.20;;;;;;5070740;28;20432;-75
2022/03/02 09:40:20;;;;;;;17.43;12.37;;;9.60;64.20;;;;;;5087337;28;21360;-76
2022/03/02 09:42:56;;;;;;;19.20;12.63;;;9.40;65.40;;;;;;5088671;28;20467;-76
2022/03/02 09:45:25;;;;;;;16.47;11.70;;;9.80;65.40;;;;;;5089052;28;20420;-76
2022/03/02 09:47:56;;;;;;;17.10;13.10;;;10.50;62.70;;;;;;5088903;28;20459;-76
2022/03/02 09:50:24;;;;;;;16.80;12.43;;;11.00;60.20;;;;;;5088740;28;20443;-76
2022/03/02 09:52:52;;;;;;;19.70;12.70;;;11.20;58.20;;;;;;5086693;28;20539;-76
2022/03/02 09:55:23;;;;;;;21.47;14.50;;;10.90;58.00;;;;;;5088365;28;20450;-76
2022/03/02 09:57:55;;;;;;;18.50;12.37;;;10.80;59.10;;;;;;5086672;28;20434;-76
2022/03/02 10:00:23;;;;;;;19.73;13.47;;;10.70;58.80;;;;;;5088688;28;20487;-76
2022/03/02 10:02:55;;;;;;;18.63;12.90;;;10.50;58.40;;;;;;5086529;28;20549;-76
2022/03/02 10:05:26;;;;;;;20.67;13.50;;;10.40;58.60;;;;;;5086873;28;20427;-75
2022/03/02 10:08:03;;;;;;;18.27;12.53;;;10.20;58.60;;;;;;5088538;28;20769;-77
2022/03/02 10:10:36;;;;;;;17.13;12.77;;;10.50;58.40;;;;;;5086820;28;20448;-77
2022/03/02 10:13:04;;;;;;;19.00;13.63;;;10.50;59.10;;;;;;5086417;28;21078;-75
2022/03/02 10:15:31;;;;;;;17.57;12.33;;;10.00;57.50;;;;;;5087912;28;20435;-77
2022/03/02 10:17:59;;;;;;;20.33;13.37;;;9.70;58.80;;;;;;5087538;28;20422;-77
2022/03/02 10:20:28;;;;;;;22.93;13.17;;;9.80;59.90;;;;;;5069554;28;21194;-75
2022/03/02 10:23:23;;;;;;;21.67;14.07;;;9.50;61.30;;;;;;5088234;28;20558;-75
2022/03/02 10:26:08;;;;;;;20.63;14.57;;;9.40;61.90;;;;;;5088368;28;20430;-76
2022/03/02 10:28:58;;;;;;;21.17;13.20;;;9.70;64.10;;;;;;5087951;28;20425;-76
2022/03/02 10:31:41;;;;;;;21.90;12.83;;;9.70;59.80;;;;;;5087729;28;20431;-76
2022/03/02 10:34:25;;;;;;;17.63;12.80;;;10.00;60.50;;;;;;5088124;28;20411;-76
2022/03/02 10:37:15;;;;;;;18.07;12.80;;;10.50;61.20;;;;;;5088317;28;20813;-77
2022/03/02 10:40:15;;;;;;;23.20;13.20;;;11.20;58.30;;;;;;5087673;28;20473;-76
2022/03/02 10:42:48;;;;;;;20.40;13.83;;;11.00;56.60;;;;;;5087861;28;20464;-77
2022/03/02 10:45:18;;;;;;;22.20;14.10;;;11.30;58.50;;;;;;5087815;28;20413;-76
2022/03/02 10:47:59;;;;;;;24.40;14.50;;;11.60;59.10;;;;;;5088813;28;20420;-75
2022/03/02 10:50:36;;;;;;;22.30;13.90;;;12.00;55.00;;;;;;5087449;28;20931;-76
2022/03/02 10:53:04;;;;;;;23.77;14.23;;;12.90;55.80;;;;;;5086484;28;20512;-75
2022/03/02 10:55:34;;;;;;;16.90;13.43;;;13.00;54.60;;;;;;5069658;28;20466;-75
2022/03/02 10:58:04;;;;;;;22.57;15.53;;;12.70;52.70;;;;;;5087620;28;20887;-77
2022/03/02 11:00:31;;;;;;;20.10;13.80;;;12.40;52.20;;;;;;5086070;28;20989;-77
2022/03/02 11:02:57;;;;;;;20.53;16.20;;;11.80;52.40;;;;;;5085868;28;20579;-77
2022/03/02 11:05:26;;;;;;;21.50;14.57;;;11.70;52.30;;;;;;5087539;28;20793;-76
2022/03/02 11:07:52;;;;;;;22.33;14.10;;;11.90;52.90;;;;;;5069136;28;20431;-76
2022/03/02 11:10:23;;;;;;;20.63;14.00;;;11.90;53.30;;;;;;5087167;28;20438;-76
2022/03/02 11:12:50;;;;;;;26.63;14.47;;;12.30;52.00;;;;;;5085906;28;20424;-77
2022/03/02 11:15:18;;;;;;;23.40;16.03;;;12.60;51.50;;;;;;5087422;28;20485;-76
2022/03/02 11:17:53;;;;;;;27.67;15.70;;;12.30;52.20;;;;;;5087303;28;20947;-77
2022/03/02 11:20:19;;;;;;;25.07;15.97;;;12.30;51.60;;;;;;5087467;28;20447;-76
2022/03/02 11:22:55;;;;;;;29.17;15.63;;;12.30;51.10;;;;;;5087498;28;20523;-76
2022/03/02 11:25:44;;;;;;;20.83;15.23;;;12.00;52.10;;;;;;5086482;28;20418;-76
2022/03/02 11:28:15;;;;;;;23.30;14.80;;;11.80;51.50;;;;;;5087326;28;20426;-75
2022/03/02 11:31:05;;;;;;;18.40;14.33;;;11.60;51.80;;;;;;5086834;28;20766;-75
2022/03/02 11:33:32;;;;;;;18.73;13.60;;;11.20;52.10;;;;;;5087594;28;20485;-76
2022/03/02 11:36:08;;;;;;;16.67;12.30;;;10.90;52.80;;;;;;5087389;28;20422;-76
2022/03/02 11:38:34;;;;;;;16.20;12.90;;;10.60;53.50;;;;;;5087423;28;20425;-76
2022/03/02 11:41:01;;;;;;;18.30;13.57;;;10.60;55.00;;;;;;5087656;28;20440;-75
2022/03/02 11:43:32;;;;;;;17.90;12.30;;;10.40;54.00;;;;;;5087134;28;20498;-77
2022/03/02 11:46:04;;;;;;;18.67;13.07;;;10.30;54.60;;;;;;5087298;28;20419;-77
2022/03/02 11:48:42;;;;;;;19.90;13.20;;;10.20;56.40;;;;;;5086022;28;20420;-78
2022/03/02 11:51:16;;;;;;;19.63;14.10;;;10.20;56.00;;;;;;5085297;28;20532;-77
2022/03/02 11:53:45;;;;;;;18.30;13.57;;;10.10;54.80;;;;;;5087014;28;20477;-76
2022/03/02 11:56:15;;;;;;;23.70;15.10;;;10.30;56.20;;;;;;5087075;28;20419;-76
2022/03/02 11:58:56;;;;;;;23.23;14.10;;;10.50;55.80;;;;;;5085913;28;20429;-76
2022/03/02 12:01:26;;;;;;;20.23;13.67;;;10.60;56.40;;;;;;5085897;28;20449;-77
2022/03/02 12:04:00;;;;;;;25.27;15.57;;;10.70;55.50;;;;;;5087152;28;20524;-77
2022/03/02 12:06:27;;;;;;;20.20;14.20;;;10.60;55.00;;;;;;5085602;28;21239;-77
2022/03/02 12:08:56;;;;;;;17.70;13.07;;;10.50;54.00;;;;;;5086897;28;20858;-77
2022/03/02 12:11:26;;;;;;;19.23;12.17;;;10.50;53.20;;;;;;5087514;28;20445;-77
2022/03/02 12:14:06;;;;;;;26.23;13.83;;;10.50;52.50;;;;;;5087328;28;20419;-76
2022/03/02 12:16:43;;;;;;;16.47;12.73;;;10.40;51.30;;;;;;5085535;28;20447;-76
2022/03/02 12:19:26;;;;;;;21.43;11.47;;;10.40;50.80;;;;;;5087534;28;20420;-75
2022/03/02 12:22:00;;;;;;;25.83;11.97;;;10.40;51.40;;;;;;5085684;28;20450;-77
2022/03/02 12:24:32;;;;;;;18.83;12.50;;;10.40;50.40;;;;;;5087420;28;20508;-77
2022/03/02 12:27:03;;;;;;;18.40;12.10;;;10.40;51.60;;;;;;5087905;28;20970;-75
2022/03/02 12:29:31;;;;;;;20.83;13.60;;;10.70;52.60;;;;;;5087620;28;20447;-76
2022/03/02 12:32:05;;;;;;;20.57;13.67;;;11.10;53.60;;;;;;5087109;28;20523;-76
2022/03/02 12:34:39;;;;;;;18.70;12.50;;;11.40;52.90;;;;;;5087297;28;20423;-76
2022/03/02 12:37:06;;;;;;;23.17;13.13;;;11.80;51.20;;;;;;5087492;28;20423;-76
2022/03/02 12:39:32;;;;;;;16.87;12.47;;;11.80;51.50;;;;;;5087509;28;20464;-76